Time;durP1;ratioP1;P1;durP2;ratioP2;P2;SDS_P1;SDS_P2;PMS_P1;PMS_P2;Temp;Humidity;BMP_temperature;BMP_pressure;BME280_temperature;BME280_humidity;BME280_pressure;Samples;Min_cycle;Max_cycle;Signal;HPM_P1;HPM_P2
2023/12/09 00:02:21;;;;;;;43.00;20.90;;;1.80;99.90;;;;;;5039944;28;20100;-66
2023/12/09 00:04:47;;;;;;;44.45;21.38;;;1.80;99.90;;;;;;5039763;28;20044;-65
2023/12/09 00:07:12;;;;;;;40.28;20.60;;;1.80;99.90;;;;;;5038423;28;20368;-66
2023/12/09 00:09:38;;;;;;;50.95;25.10;;;1.80;99.90;;;;;;5039796;28;20036;-68
2023/12/09 00:12:03;;;;;;;47.17;22.30;;;1.80;99.90;;;;;;5041495;28;20032;-66
2023/12/09 00:14:29;;;;;;;43.88;19.88;;;1.80;99.90;;;;;;5039917;28;20468;-66
2023/12/09 00:16:54;;;;;;;47.90;21.15;;;1.80;99.90;;;;;;5039409;28;20043;-66
2023/12/09 00:19:20;;;;;;;40.10;20.48;;;1.80;99.90;;;;;;5039634;28;20043;-66
2023/12/09 00:21:45;;;;;;;33.05;17.80;;;1.80;99.90;;;;;;5037916;28;20037;-65
2023/12/09 00:24:11;;;;;;;42.97;22.15;;;1.80;99.90;;;;;;5039590;28;20394;-66
2023/12/09 00:26:36;;;;;;;40.88;21.17;;;1.80;99.90;;;;;;5035665;28;20044;-67
2023/12/09 00:29:02;;;;;;;43.22;23.08;;;1.80;99.90;;;;;;5037948;28;20036;-66
2023/12/09 00:31:27;;;;;;;44.78;23.77;;;1.80;99.90;;;;;;5037950;28;20124;-65
2023/12/09 00:33:53;;;;;;;43.92;22.20;;;1.80;99.90;;;;;;5037818;28;20366;-65
2023/12/09 00:36:18;;;;;;;37.72;21.05;;;1.70;99.90;;;;;;5035688;28;20025;-66
2023/12/09 00:38:44;;;;;;;41.20;21.42;;;1.80;99.90;;;;;;5039012;28;20033;-65
2023/12/09 00:41:09;;;;;;;53.55;25.00;;;1.80;99.90;;;;;;5041035;28;20630;-66
2023/12/09 00:43:35;;;;;;;44.10;21.73;;;1.80;99.90;;;;;;5039132;28;20028;-67
2023/12/09 00:46:00;;;;;;;47.25;24.80;;;1.80;99.90;;;;;;5038853;28;21228;-65
2023/12/09 00:48:26;;;;;;;38.22;19.08;;;1.80;99.90;;;;;;5038823;28;20394;-65
2023/12/09 00:50:51;;;;;;;42.22;22.48;;;1.80;99.90;;;;;;5037204;28;20021;-66
2023/12/09 00:53:17;;;;;;;42.05;20.92;;;1.80;99.90;;;;;;5039139;28;20438;-65
2023/12/09 00:55:42;;;;;;;42.50;22.13;;;1.80;99.90;;;;;;5038897;28;20100;-65
2023/12/09 00:58:08;;;;;;;40.40;20.38;;;1.80;99.90;;;;;;5040647;28;20021;-66
2023/12/09 01:00:33;;;;;;;49.88;23.42;;;1.90;99.90;;;;;;5037688;28;20741;-67
2023/12/09 01:02:59;;;;;;;45.15;23.85;;;1.90;99.90;;;;;;5038748;28;20040;-66
2023/12/09 01:05:24;;;;;;;42.85;21.30;;;1.90;99.90;;;;;;5034635;28;20033;-66
2023/12/09 01:07:49;;;;;;;46.00;22.25;;;1.90;99.90;;;;;;5038888;28;20422;-66
2023/12/09 01:10:15;;;;;;;46.45;22.67;;;1.90;99.90;;;;;;5040817;28;20032;-66
2023/12/09 01:12:41;;;;;;;47.05;23.70;;;1.90;99.90;;;;;;5040485;28;20041;-66
2023/12/09 01:15:07;;;;;;;44.67;23.35;;;1.90;99.90;;;;;;5038728;28;20033;-66
2023/12/09 01:17:32;;;;;;;44.50;21.95;;;1.90;99.90;;;;;;5038777;28;20032;-66
2023/12/09 01:19:58;;;;;;;44.08;20.73;;;1.90;99.90;;;;;;5038662;28;20087;-66
2023/12/09 01:22:23;;;;;;;42.05;20.88;;;1.90;99.90;;;;;;5034541;28;20017;-66
2023/12/09 01:24:49;;;;;;;38.28;19.08;;;2.00;99.90;;;;;;5038984;28;20029;-65
2023/12/09 01:27:14;;;;;;;51.70;25.88;;;2.00;99.90;;;;;;5040443;28;20020;-67
2023/12/09 01:29:40;;;;;;;39.75;19.60;;;2.00;99.90;;;;;;5038894;28;20043;-66
2023/12/09 01:32:06;;;;;;;45.35;21.88;;;2.00;99.90;;;;;;5038617;28;20737;-66
2023/12/09 01:34:31;;;;;;;46.20;22.48;;;2.00;99.90;;;;;;5036498;28;20021;-66
2023/12/09 01:36:57;;;;;;;43.60;22.75;;;2.00;99.90;;;;;;5031132;28;20100;-67
2023/12/09 01:39:22;;;;;;;39.08;19.20;;;2.00;99.90;;;;;;5038402;28;20483;-66
2023/12/09 01:41:48;;;;;;;42.08;20.77;;;2.10;99.90;;;;;;5040416;28;20035;-66
2023/12/09 01:44:13;;;;;;;41.70;19.08;;;2.00;99.90;;;;;;5038450;28;20021;-67
2023/12/09 01:46:39;;;;;;;45.50;20.40;;;2.00;99.90;;;;;;5038287;28;20065;-67
2023/12/09 01:49:05;;;;;;;38.47;19.33;;;2.00;99.90;;;;;;5038637;28;20032;-67
2023/12/09 01:51:32;;;;;;;40.58;20.80;;;2.10;99.90;;;;;;5036898;28;20037;-67
2023/12/09 01:53:58;;;;;;;40.88;20.38;;;2.10;99.90;;;;;;5038304;28;20025;-67
2023/12/09 01:56:24;;;;;;;39.47;20.08;;;2.10;99.90;;;;;;5038395;28;20048;-67
2023/12/09 01:58:51;;;;;;;47.00;21.20;;;2.10;99.90;;;;;;5040215;28;20029;-66
2023/12/09 02:01:16;;;;;;;38.33;18.75;;;2.10;99.90;;;;;;5034558;28;20502;-67
2023/12/09 02:03:42;;;;;;;46.28;21.10;;;2.10;99.90;;;;;;5041485;28;20021;-67
2023/12/09 02:06:07;;;;;;;44.47;22.48;;;2.10;99.90;;;;;;5041810;28;20029;-67
2023/12/09 02:08:33;;;;;;;40.83;20.23;;;2.10;99.90;;;;;;5041831;28;20029;-66
2023/12/09 02:11:13;;;;;;;45.88;21.00;;;2.10;99.90;;;;;;5041665;28;20025;-66
2023/12/09 02:14:04;;;;;;;40.80;18.75;;;2.10;99.90;;;;;;5041986;28;20029;-67
2023/12/09 02:16:38;;;;;;;43.25;20.10;;;2.10;99.90;;;;;;5041625;28;20111;-66
2023/12/09 02:19:06;;;;;;;44.20;21.02;;;2.10;99.90;;;;;;5041599;28;20013;-67
2023/12/09 02:22:01;;;;;;;37.55;17.52;;;2.20;99.90;;;;;;5041849;28;20029;-66
2023/12/09 02:24:27;;;;;;;43.85;19.88;;;2.20;99.90;;;;;;5041525;28;20103;-66
2023/12/09 02:26:53;;;;;;;40.55;19.83;;;2.20;99.90;;;;;;5041695;28;20166;-66
2023/12/09 02:29:20;;;;;;;37.42;18.25;;;2.20;99.90;;;;;;5043318;28;20044;-67
2023/12/09 02:31:50;;;;;;;50.67;19.95;;;2.20;99.90;;;;;;5039082;28;20028;-66
2023/12/09 02:34:16;;;;;;;39.75;18.90;;;2.20;99.90;;;;;;5043059;28;20708;-67
2023/12/09 02:36:45;;;;;;;38.40;18.17;;;2.20;99.90;;;;;;5032187;28;20032;-67
2023/12/09 02:39:12;;;;;;;37.65;18.25;;;2.20;99.90;;;;;;5041115;28;20095;-67
2023/12/09 02:41:40;;;;;;;37.50;17.92;;;2.20;99.90;;;;;;5036747;28;20030;-68
2023/12/09 02:44:05;;;;;;;37.22;18.70;;;2.30;99.90;;;;;;5041399;28;20737;-67
2023/12/09 02:46:31;;;;;;;39.25;19.13;;;2.30;99.90;;;;;;5041148;28;20072;-66
2023/12/09 02:48:59;;;;;;;44.38;19.65;;;2.30;99.90;;;;;;5040802;28;20379;-66
2023/12/09 02:51:25;;;;;;;40.05;18.83;;;2.30;99.90;;;;;;5042619;28;20498;-67
2023/12/09 02:53:50;;;;;;;37.67;18.42;;;2.30;99.90;;;;;;5038604;28;20427;-67
2023/12/09 02:56:16;;;;;;;35.67;18.25;;;2.30;99.90;;;;;;5040720;28;20406;-66
2023/12/09 02:58:41;;;;;;;43.20;20.33;;;2.30;99.90;;;;;;5040713;28;20183;-67
2023/12/09 03:01:07;;;;;;;35.15;16.58;;;2.30;99.90;;;;;;5040478;28;20039;-66
2023/12/09 03:03:32;;;;;;;40.03;18.38;;;2.30;99.90;;;;;;5040832;28;20048;-66
2023/12/09 03:05:58;;;;;;;44.35;20.92;;;2.30;99.90;;;;;;5042505;28;20423;-66
2023/12/09 03:08:23;;;;;;;42.22;22.70;;;2.30;99.90;;;;;;5040610;28;20028;-66
2023/12/09 03:10:49;;;;;;;45.67;21.27;;;2.30;99.90;;;;;;5040576;28;20037;-67
2023/12/09 03:13:14;;;;;;;37.10;19.42;;;2.30;99.90;;;;;;5040395;28;20101;-66
2023/12/09 03:15:40;;;;;;;42.17;19.75;;;2.30;99.90;;;;;;5038048;28;20036;-66
2023/12/09 03:18:05;;;;;;;40.30;18.70;;;2.30;99.90;;;;;;5042166;28;20032;-67
2023/12/09 03:20:31;;;;;;;42.70;18.90;;;2.40;99.90;;;;;;5044082;28;20032;-67
2023/12/09 03:22:56;;;;;;;41.85;17.67;;;2.40;99.90;;;;;;5040345;28;20047;-67
2023/12/09 03:25:22;;;;;;;39.08;18.85;;;2.40;99.90;;;;;;5040319;28;20099;-67
2023/12/09 03:27:47;;;;;;;38.60;20.33;;;2.40;99.90;;;;;;5040155;28;20029;-66
2023/12/09 03:30:12;;;;;;;41.78;20.73;;;2.40;99.90;;;;;;5039967;28;20399;-66
2023/12/09 03:32:39;;;;;;;52.05;20.27;;;2.40;99.90;;;;;;5041919;28;20068;-66
2023/12/09 03:35:05;;;;;;;44.75;20.80;;;2.40;99.90;;;;;;5040047;28;20021;-67
2023/12/09 03:37:30;;;;;;;38.85;20.02;;;2.40;99.90;;;;;;5034502;28;20216;-67
2023/12/09 03:39:56;;;;;;;38.22;18.77;;;2.40;99.90;;;;;;5039999;28;20021;-67
2023/12/09 03:42:21;;;;;;;49.35;20.60;;;2.40;99.90;;;;;;5034552;28;20364;-67
2023/12/09 03:44:47;;;;;;;51.40;22.42;;;2.50;99.90;;;;;;5039793;28;20487;-67
2023/12/09 03:47:12;;;;;;;37.58;18.42;;;2.50;99.90;;;;;;5037886;28;20034;-66
2023/12/09 03:49:37;;;;;;;46.42;20.25;;;2.40;99.90;;;;;;5032486;28;20494;-66
2023/12/09 03:52:03;;;;;;;44.08;19.65;;;2.50;99.90;;;;;;5033877;28;20041;-66
2023/12/09 03:54:29;;;;;;;48.10;20.98;;;2.50;99.90;;;;;;5039749;28;20364;-63
2023/12/09 03:56:54;;;;;;;43.00;19.50;;;2.50;99.90;;;;;;5039370;28;20144;-63
2023/12/09 03:59:19;;;;;;;49.45;20.88;;;2.50;99.90;;;;;;5041646;28;20418;-64
2023/12/09 04:01:47;;;;;;;55.67;20.92;;;2.50;99.90;;;;;;5039547;28;20041;-63
2023/12/09 04:04:12;;;;;;;57.53;22.83;;;2.50;99.90;;;;;;5035416;28;20100;-65
2023/12/09 04:06:38;;;;;;;49.35;22.10;;;2.60;99.90;;;;;;5039737;28;20593;-64
2023/12/09 04:09:04;;;;;;;41.33;19.77;;;2.50;99.90;;;;;;5039462;28;20017;-64
2023/12/09 04:11:29;;;;;;;45.47;20.58;;;2.50;99.90;;;;;;5039265;28;20025;-64
2023/12/09 04:13:55;;;;;;;42.42;19.23;;;2.50;99.90;;;;;;5041186;28;20039;-64
2023/12/09 04:16:20;;;;;;;41.17;17.30;;;2.50;99.90;;;;;;5039334;28;20374;-65
2023/12/09 04:18:47;;;;;;;51.63;23.58;;;2.50;99.90;;;;;;5039256;28;20041;-64
2023/12/09 04:21:12;;;;;;;60.35;22.90;;;2.60;99.90;;;;;;5039238;28;20159;-64
2023/12/09 04:23:38;;;;;;;46.95;20.23;;;2.60;99.90;;;;;;5038839;28;20502;-64
2023/12/09 04:26:04;;;;;;;52.67;23.15;;;2.50;99.90;;;;;;5037848;28;20025;-64
2023/12/09 04:28:30;;;;;;;47.58;21.35;;;2.60;99.90;;;;;;5032137;28;20033;-64
2023/12/09 04:30:55;;;;;;;53.67;21.67;;;2.60;99.90;;;;;;5031608;28;20034;-64
2023/12/09 04:33:21;;;;;;;48.75;19.45;;;2.60;99.90;;;;;;5034430;28;20398;-64
2023/12/09 04:35:47;;;;;;;54.67;22.23;;;2.60;99.90;;;;;;5038542;28;20060;-63
2023/12/09 04:38:12;;;;;;;60.63;23.35;;;2.60;99.90;;;;;;5033308;28;20144;-65
2023/12/09 04:40:38;;;;;;;49.20;20.35;;;2.60;99.90;;;;;;5037994;28;20776;-64
2023/12/09 04:43:04;;;;;;;55.83;20.95;;;2.70;99.90;;;;;;5037753;28;20120;-64
2023/12/09 04:45:29;;;;;;;57.00;21.60;;;2.60;99.90;;;;;;5041162;28;20543;-66
2023/12/09 04:47:55;;;;;;;49.47;18.42;;;2.70;99.90;;;;;;5037663;28;20078;-66
2023/12/09 04:50:21;;;;;;;53.88;19.58;;;2.70;99.90;;;;;;5039095;28;20036;-66
2023/12/09 04:52:46;;;;;;;50.75;18.70;;;2.70;99.90;;;;;;5039206;28;20025;-66
2023/12/09 04:55:12;;;;;;;55.47;22.08;;;2.70;99.90;;;;;;5039182;28;20558;-66
2023/12/09 04:57:37;;;;;;;67.82;21.77;;;2.70;99.90;;;;;;5034271;28;20090;-64
2023/12/09 05:00:05;;;;;;;54.05;19.95;;;2.70;99.90;;;;;;5040162;28;20031;-66
2023/12/09 05:02:31;;;;;;;59.15;22.30;;;2.70;99.90;;;;;;5038343;28;20674;-66
2023/12/09 05:04:56;;;;;;;65.85;22.55;;;2.70;99.90;;;;;;5037408;28;20024;-66
2023/12/09 05:07:25;;;;;;;49.80;19.45;;;2.70;99.90;;;;;;5036450;28;20033;-66
2023/12/09 05:09:52;;;;;;;56.63;21.65;;;2.70;99.90;;;;;;5036799;28;20035;-67
2023/12/09 05:12:17;;;;;;;56.60;22.83;;;2.70;99.90;;;;;;5037683;28;20033;-66
2023/12/09 05:14:43;;;;;;;53.38;21.10;;;2.70;99.90;;;;;;5036224;28;20276;-66
2023/12/09 05:17:08;;;;;;;73.05;25.80;;;2.70;99.90;;;;;;5037147;28;20078;-66
2023/12/09 05:19:34;;;;;;;79.03;26.75;;;2.70;99.90;;;;;;5036999;28;20040;-65
2023/12/09 05:21:59;;;;;;;61.20;21.90;;;2.70;99.90;;;;;;5036419;28;20025;-66
2023/12/09 05:24:25;;;;;;;72.63;24.42;;;2.70;99.90;;;;;;5037834;28;20025;-66
2023/12/09 05:26:51;;;;;;;69.00;24.50;;;2.70;99.90;;;;;;5036506;28;20060;-65
2023/12/09 05:29:16;;;;;;;68.70;23.55;;;2.60;99.90;;;;;;5037512;28;20094;-64
2023/12/09 05:31:42;;;;;;;67.32;23.00;;;2.70;99.90;;;;;;5039604;28;20049;-65
2023/12/09 05:34:08;;;;;;;65.50;22.40;;;2.60;99.90;;;;;;5037586;28;20517;-65
2023/12/09 05:36:33;;;;;;;62.05;22.50;;;2.60;99.90;;;;;;5030442;28;20366;-66
2023/12/09 05:38:59;;;;;;;58.55;22.17;;;2.60;99.90;;;;;;5038738;28;20025;-65
2023/12/09 05:41:25;;;;;;;70.45;23.65;;;2.60;99.90;;;;;;5041833;28;20175;-65
2023/12/09 05:43:50;;;;;;;65.03;21.67;;;2.60;99.90;;;;;;5043378;28;20104;-65
2023/12/09 05:46:19;;;;;;;70.78;23.27;;;2.60;99.90;;;;;;5041061;28;20032;-65
2023/12/09 05:48:45;;;;;;;72.78;21.42;;;2.60;99.90;;;;;;5041332;28;20452;-66
2023/12/09 05:51:11;;;;;;;72.82;23.95;;;2.70;99.90;;;;;;5039160;28;20493;-65
2023/12/09 05:53:36;;;;;;;79.53;23.60;;;2.70;99.90;;;;;;5038438;28;20029;-65
2023/12/09 05:56:01;;;;;;;126.80;33.70;;;2.70;99.90;;;;;;5036724;28;20049;-66
2023/12/09 05:58:27;;;;;;;83.18;27.15;;;2.70;99.90;;;;;;5041075;28;20040;-66
2023/12/09 06:00:52;;;;;;;75.10;24.95;;;2.60;99.90;;;;;;5035898;28;20031;-65
2023/12/09 06:03:18;;;;;;;86.60;27.58;;;2.60;99.90;;;;;;5040869;28;20029;-67
2023/12/09 06:05:43;;;;;;;118.53;29.88;;;2.60;99.90;;;;;;5040839;28;20036;-65
2023/12/09 06:08:09;;;;;;;120.72;30.58;;;2.60;99.90;;;;;;5037800;28;20060;-66
2023/12/09 06:10:34;;;;;;;104.20;28.77;;;2.60;99.90;;;;;;5040992;28;20035;-66
2023/12/09 06:13:00;;;;;;;118.32;32.70;;;2.50;99.90;;;;;;5040425;28;20049;-68
2023/12/09 06:15:25;;;;;;;91.35;28.95;;;2.50;99.90;;;;;;5037553;28;20021;-65
2023/12/09 06:17:51;;;;;;;86.93;27.77;;;2.50;99.90;;;;;;5038074;28;20653;-65
2023/12/09 06:20:16;;;;;;;95.40;29.15;;;2.50;99.90;;;;;;5037457;28;20040;-65
2023/12/09 06:22:42;;;;;;;127.57;31.80;;;2.50;99.90;;;;;;5038348;28;20030;-66
2023/12/09 06:25:08;;;;;;;116.35;31.67;;;2.50;99.90;;;;;;5040315;28;20037;-67
2023/12/09 06:27:35;;;;;;;137.85;33.95;;;2.50;99.90;;;;;;5039501;28;20021;-65
2023/12/09 06:30:00;;;;;;;138.93;37.90;;;2.50;99.90;;;;;;5039271;28;20267;-65
2023/12/09 06:32:26;;;;;;;111.30;35.05;;;2.50;99.90;;;;;;5038956;28;20530;-64
2023/12/09 06:34:51;;;;;;;142.50;35.50;;;2.50;99.90;;;;;;5033902;28;20060;-66
2023/12/09 06:37:17;;;;;;;117.47;31.90;;;2.40;99.90;;;;;;5028021;28;20025;-66
2023/12/09 06:39:42;;;;;;;145.02;36.60;;;2.50;99.90;;;;;;5038250;28;20029;-66
2023/12/09 06:42:08;;;;;;;98.88;29.80;;;2.50;99.90;;;;;;5040076;28;20616;-65
2023/12/09 06:44:33;;;;;;;88.05;26.45;;;2.50;99.90;;;;;;5039318;28;20032;-67
2023/12/09 06:46:59;;;;;;;90.22;25.55;;;2.50;99.90;;;;;;5039119;28;20029;-65
2023/12/09 06:49:24;;;;;;;92.32;26.98;;;2.60;99.90;;;;;;5039881;28;20029;-66
2023/12/09 06:51:50;;;;;;;100.05;26.70;;;2.60;99.90;;;;;;5039900;28;20044;-66
2023/12/09 06:54:16;;;;;;;87.25;25.27;;;2.60;99.90;;;;;;5041230;28;20029;-65
2023/12/09 06:56:42;;;;;;;62.22;19.70;;;2.60;99.90;;;;;;5034970;28;20033;-65
2023/12/09 06:59:07;;;;;;;87.82;25.40;;;2.60;99.90;;;;;;5040675;28;20090;-65
2023/12/09 07:01:33;;;;;;;82.63;25.33;;;2.70;99.90;;;;;;5042453;28;20033;-66
2023/12/09 07:03:58;;;;;;;82.07;24.95;;;2.70;99.90;;;;;;5040737;28;20059;-65
2023/12/09 07:06:26;;;;;;;70.38;22.13;;;2.80;99.90;;;;;;5039060;28;20047;-65
2023/12/09 07:08:53;;;;;;;63.08;21.60;;;2.80;99.90;;;;;;5040170;28;20040;-65
2023/12/09 07:11:19;;;;;;;63.00;21.10;;;2.80;99.90;;;;;;5039779;28;20035;-66
2023/12/09 07:13:45;;;;;;;95.07;31.42;;;2.90;99.90;;;;;;5040618;28;20502;-65
2023/12/09 07:16:13;;;;;;;63.50;22.13;;;2.90;99.90;;;;;;5040109;28;20017;-66
2023/12/09 07:18:42;;;;;;;65.85;23.67;;;2.90;99.90;;;;;;5038493;28;20102;-67
2023/12/09 07:21:08;;;;;;;59.83;20.25;;;2.90;99.90;;;;;;5041821;28;20029;-66
2023/12/09 07:23:33;;;;;;;65.53;20.80;;;2.90;99.90;;;;;;5038991;28;20033;-67
2023/12/09 07:25:59;;;;;;;69.65;21.70;;;2.90;99.90;;;;;;5040467;28;20418;-65
2023/12/09 07:28:25;;;;;;;51.88;19.08;;;2.90;99.90;;;;;;5040454;28;20386;-65
2023/12/09 07:30:50;;;;;;;73.20;22.13;;;3.00;99.90;;;;;;5039759;28;20037;-65
2023/12/09 07:33:16;;;;;;;67.95;24.30;;;3.00;99.90;;;;;;5042009;28;20044;-66
2023/12/09 07:35:42;;;;;;;76.13;28.17;;;3.00;99.90;;;;;;5036746;28;20537;-66
2023/12/09 07:38:08;;;;;;;67.93;25.27;;;3.10;99.90;;;;;;5032994;28;20052;-65
2023/12/09 07:40:33;;;;;;;71.43;25.00;;;3.00;99.90;;;;;;5038219;28;20460;-65
2023/12/09 07:42:59;;;;;;;83.45;29.80;;;3.10;99.90;;;;;;5037073;28;20071;-66
2023/12/09 07:45:24;;;;;;;93.50;32.40;;;3.10;99.90;;;;;;5037895;28;20092;-65
2023/12/09 07:47:50;;;;;;;91.15;31.35;;;3.10;99.90;;;;;;5039615;28;20522;-65
2023/12/09 07:50:17;;;;;;;81.85;29.75;;;3.10;99.90;;;;;;5041456;28;20102;-66
2023/12/09 07:52:42;;;;;;;66.32;26.35;;;3.10;99.90;;;;;;5037824;28;20033;-65
2023/12/09 07:55:08;;;;;;;76.18;28.10;;;3.10;99.90;;;;;;5039914;28;20025;-66
2023/12/09 07:57:34;;;;;;;71.95;26.58;;;3.10;99.90;;;;;;5039448;28;20044;-65
2023/12/09 08:00:00;;;;;;;59.35;23.02;;;3.10;99.90;;;;;;5038325;28;20025;-66
2023/12/09 08:02:25;;;;;;;53.92;21.38;;;3.20;99.90;;;;;;5039396;28;20118;-65
2023/12/09 08:04:51;;;;;;;56.72;21.80;;;3.20;99.90;;;;;;5040566;28;20040;-65
2023/12/09 08:07:16;;;;;;;56.58;24.27;;;3.20;99.90;;;;;;5041172;28;20029;-66
2023/12/09 08:09:43;;;;;;;46.85;19.15;;;3.20;99.90;;;;;;5037905;28;20037;-66
2023/12/09 08:12:08;;;;;;;67.20;25.80;;;3.30;99.90;;;;;;5039124;28;20021;-65
2023/12/09 08:14:34;;;;;;;79.45;30.30;;;3.30;99.90;;;;;;5039270;28;20043;-65
2023/12/09 08:16:59;;;;;;;64.55;26.48;;;3.30;99.90;;;;;;5039092;28;20040;-65
2023/12/09 08:19:25;;;;;;;67.32;24.98;;;3.30;99.90;;;;;;5041054;28;20028;-66
2023/12/09 08:21:50;;;;;;;80.47;28.92;;;3.30;99.90;;;;;;5039053;28;20021;-65
2023/12/09 08:24:16;;;;;;;77.78;30.88;;;3.30;99.90;;;;;;5039045;28;20025;-65
2023/12/09 08:26:42;;;;;;;85.78;30.42;;;3.30;99.90;;;;;;5039192;28;20037;-66
2023/12/09 08:29:11;;;;;;;73.68;28.48;;;3.30;99.90;;;;;;5037347;28;20017;-65
2023/12/09 08:31:37;;;;;;;67.13;26.33;;;3.30;99.90;;;;;;5039097;28;20029;-65
2023/12/09 08:34:04;;;;;;;67.95;28.02;;;3.40;99.90;;;;;;5038947;28;20498;-64
2023/12/09 08:36:29;;;;;;;66.78;25.80;;;3.40;99.90;;;;;;5033280;28;20066;-65
2023/12/09 08:38:55;;;;;;;65.10;25.73;;;3.40;99.90;;;;;;5038870;28;20025;-64
2023/12/09 08:41:20;;;;;;;60.88;24.05;;;3.40;99.90;;;;;;5038889;28;20407;-64
2023/12/09 08:43:46;;;;;;;79.15;30.88;;;3.40;99.90;;;;;;5037416;28;20033;-63
2023/12/09 08:46:11;;;;;;;77.90;29.65;;;3.40;99.90;;;;;;5038723;28;20104;-66
2023/12/09 08:48:37;;;;;;;71.60;29.83;;;3.50;99.90;;;;;;5038800;28;20029;-65
2023/12/09 08:51:03;;;;;;;57.15;24.42;;;3.50;99.90;;;;;;5040544;28;20028;-65
2023/12/09 08:53:29;;;;;;;61.85;25.88;;;3.60;99.90;;;;;;5038631;28;20025;-66
2023/12/09 08:55:54;;;;;;;55.60;24.65;;;3.60;99.90;;;;;;5038428;28;20051;-66
2023/12/09 08:58:20;;;;;;;64.22;28.48;;;3.70;99.90;;;;;;5034470;28;20482;-65
2023/12/09 09:00:45;;;;;;;64.45;28.50;;;3.70;99.90;;;;;;5038625;28;20067;-65
2023/12/09 09:03:11;;;;;;;61.50;28.60;;;3.80;99.90;;;;;;5038473;28;20021;-67
2023/12/09 09:05:36;;;;;;;49.13;22.95;;;3.80;99.90;;;;;;5039716;28;20025;-66
2023/12/09 09:08:02;;;;;;;54.05;25.30;;;3.80;99.90;;;;;;5035676;28;20029;-66
2023/12/09 09:10:28;;;;;;;48.25;21.65;;;3.90;99.90;;;;;;5040834;28;20080;-66
2023/12/09 09:12:53;;;;;;;49.80;21.80;;;3.90;99.90;;;;;;5042524;28;20029;-67
2023/12/09 09:15:20;;;;;;;56.83;26.52;;;4.00;99.90;;;;;;5042584;28;20047;-66
2023/12/09 09:17:45;;;;;;;45.25;21.27;;;4.00;99.90;;;;;;5042456;28;20051;-65
2023/12/09 09:20:11;;;;;;;43.20;20.67;;;4.00;99.90;;;;;;5042503;28;20027;-66
2023/12/09 09:22:36;;;;;;;42.47;19.83;;;4.00;99.90;;;;;;5044386;28;20035;-66
2023/12/09 09:25:02;;;;;;;46.65;23.23;;;4.20;99.90;;;;;;5042274;28;20098;-66
2023/12/09 09:27:28;;;;;;;55.58;26.55;;;4.20;99.90;;;;;;5042681;28;20057;-66
2023/12/09 09:29:53;;;;;;;41.05;20.40;;;4.20;99.90;;;;;;5042087;28;20461;-66
2023/12/09 09:32:19;;;;;;;38.42;19.70;;;4.20;99.90;;;;;;5042296;28;20094;-66
2023/12/09 09:34:44;;;;;;;47.97;22.77;;;4.20;99.90;;;;;;5044158;28;20394;-66
2023/12/09 09:37:10;;;;;;;46.72;23.92;;;4.30;99.90;;;;;;5035657;28;20021;-66
2023/12/09 09:39:35;;;;;;;41.80;20.92;;;4.30;99.90;;;;;;5041625;28;20166;-66
2023/12/09 09:42:06;;;;;;;44.33;22.20;;;4.30;99.90;;;;;;5042128;28;20100;-66
2023/12/09 09:44:38;;;;;;;44.58;20.60;;;4.40;99.90;;;;;;5041936;28;20040;-65
2023/12/09 09:47:04;;;;;;;44.88;23.65;;;4.40;99.90;;;;;;5040487;28;20029;-66
2023/12/09 09:49:31;;;;;;;43.45;21.45;;;4.40;99.90;;;;;;5041892;28;20028;-66
2023/12/09 09:51:57;;;;;;;44.30;22.38;;;4.40;99.90;;;;;;5041800;28;20032;-65
2023/12/09 09:54:30;;;;;;;42.08;20.52;;;4.40;99.90;;;;;;5041950;28;20512;-61
2023/12/09 09:56:58;;;;;;;41.67;21.00;;;4.40;99.90;;;;;;5037701;28;20529;-65
2023/12/09 09:59:24;;;;;;;36.90;19.17;;;4.50;99.90;;;;;;5041792;28;20112;-61
2023/12/09 10:01:49;;;;;;;35.65;19.75;;;4.50;99.90;;;;;;5043611;28;20033;-62
2023/12/09 10:04:16;;;;;;;41.40;20.00;;;4.50;99.90;;;;;;5041646;28;20079;-62
2023/12/09 10:06:43;;;;;;;36.65;18.40;;;4.50;99.90;;;;;;5040319;28;20033;-62
2023/12/09 10:09:08;;;;;;;35.72;17.48;;;4.60;99.90;;;;;;5041606;28;20095;-62
2023/12/09 10:11:34;;;;;;;32.20;17.60;;;4.70;99.90;;;;;;5041524;28;20029;-62
2023/12/09 10:13:59;;;;;;;37.08;20.50;;;4.80;99.90;;;;;;5041547;28;20029;-62
2023/12/09 10:16:25;;;;;;;35.97;18.38;;;4.70;99.90;;;;;;5041383;28;20025;-62
2023/12/09 10:18:52;;;;;;;40.20;20.08;;;4.70;99.90;;;;;;5043534;28;20645;-62
2023/12/09 10:21:17;;;;;;;38.42;20.52;;;4.80;99.90;;;;;;5037794;28;20162;-63
2023/12/09 10:23:45;;;;;;;32.33;18.67;;;4.80;99.90;;;;;;5041588;28;20061;-61
2023/12/09 10:26:11;;;;;;;31.33;18.08;;;4.80;99.90;;;;;;5041426;28;20502;-62
2023/12/09 10:28:36;;;;;;;32.03;18.13;;;4.80;99.90;;;;;;5041289;28;20090;-61
2023/12/09 10:31:03;;;;;;;41.72;20.85;;;4.90;99.90;;;;;;5041395;28;20526;-63
2023/12/09 10:33:30;;;;;;;32.72;18.02;;;4.90;99.90;;;;;;5041153;28;20041;-61
2023/12/09 10:35:56;;;;;;;35.63;19.80;;;5.00;99.90;;;;;;5039645;28;20036;-61
2023/12/09 10:38:22;;;;;;;43.05;18.88;;;5.00;99.90;;;;;;5038924;28;20033;-62
2023/12/09 10:40:49;;;;;;;31.92;17.27;;;5.00;99.90;;;;;;5041218;28;20037;-61
2023/12/09 10:43:15;;;;;;;34.17;18.33;;;5.00;99.90;;;;;;5040982;28;20017;-62
2023/12/09 10:45:41;;;;;;;30.05;15.60;;;5.00;99.90;;;;;;5040930;28;20044;-62
2023/12/09 10:48:07;;;;;;;28.02;14.85;;;5.10;99.90;;;;;;5040813;28;20025;-62
2023/12/09 10:50:33;;;;;;;26.30;13.95;;;5.20;99.90;;;;;;5041089;28;20059;-61
2023/12/09 10:52:58;;;;;;;27.42;14.70;;;5.30;99.90;;;;;;5042577;28;20029;-62
2023/12/09 10:55:24;;;;;;;27.45;14.95;;;5.40;99.90;;;;;;5040975;28;20086;-62
2023/12/09 10:57:50;;;;;;;29.30;14.90;;;5.40;99.90;;;;;;5040450;28;20043;-62
2023/12/09 11:00:15;;;;;;;29.23;15.80;;;5.40;99.90;;;;;;5040619;28;20099;-62
2023/12/09 11:02:43;;;;;;;24.08;14.43;;;5.40;99.90;;;;;;5040671;28;20113;-62
2023/12/09 11:05:12;;;;;;;24.77;13.35;;;5.40;99.90;;;;;;5040508;28;20087;-63
2023/12/09 11:07:39;;;;;;;23.63;12.82;;;5.40;99.90;;;;;;5040518;28;20035;-63
2023/12/09 11:10:11;;;;;;;30.60;14.73;;;5.40;99.90;;;;;;5041000;28;20050;-62
2023/12/09 11:12:37;;;;;;;26.83;13.68;;;5.40;99.90;;;;;;5039767;28;20340;-61
2023/12/09 11:15:17;;;;;;;23.55;13.40;;;5.50;99.90;;;;;;5042071;28;20037;-62
2023/12/09 11:17:44;;;;;;;22.13;12.52;;;5.60;99.90;;;;;;5037254;28;20538;-61
2023/12/09 11:20:13;;;;;;;29.58;15.75;;;5.60;99.90;;;;;;5042006;28;20098;-63
2023/12/09 11:22:40;;;;;;;25.02;13.52;;;5.60;99.90;;;;;;5038447;28;20035;-63
2023/12/09 11:25:08;;;;;;;31.92;16.45;;;5.60;99.90;;;;;;5040355;28;20029;-63
2023/12/09 11:27:39;;;;;;;25.08;13.32;;;5.60;99.90;;;;;;5040183;28;20100;-63
2023/12/09 11:30:05;;;;;;;19.10;12.13;;;5.60;99.90;;;;;;5040080;28;20028;-62
2023/12/09 11:32:31;;;;;;;27.88;14.10;;;5.60;99.90;;;;;;5039990;28;20040;-62
2023/12/09 11:34:58;;;;;;;25.48;13.05;;;5.50;99.90;;;;;;5040010;28;20029;-62
2023/12/09 11:37:28;;;;;;;24.75;13.25;;;5.50;99.90;;;;;;5029830;28;20022;-62
2023/12/09 11:39:56;;;;;;;27.00;13.48;;;5.50;99.90;;;;;;5039656;28;20078;-62
2023/12/09 11:42:22;;;;;;;27.20;13.52;;;5.50;99.90;;;;;;5040095;28;20086;-62
2023/12/09 11:44:48;;;;;;;22.83;12.75;;;5.50;99.90;;;;;;5039780;28;20029;-61
2023/12/09 11:47:14;;;;;;;21.77;12.55;;;5.50;99.90;;;;;;5041618;28;20028;-62
2023/12/09 11:49:40;;;;;;;22.33;10.68;;;5.50;99.90;;;;;;5039891;28;20047;-63
2023/12/09 11:52:07;;;;;;;20.52;13.35;;;5.50;99.90;;;;;;5039677;28;20422;-62
2023/12/09 11:54:33;;;;;;;22.90;11.93;;;5.50;99.90;;;;;;5039548;28;20039;-62
2023/12/09 11:56:59;;;;;;;25.25;13.15;;;5.50;99.90;;;;;;5034027;28;20037;-62
2023/12/09 11:59:24;;;;;;;21.20;11.77;;;5.50;99.90;;;;;;5039577;28;20661;-62
2023/12/09 12:01:51;;;;;;;30.35;14.75;;;5.40;99.90;;;;;;5041338;28;20025;-62
2023/12/09 12:04:16;;;;;;;30.65;14.73;;;5.40;99.90;;;;;;5037404;28;20044;-62
2023/12/09 12:06:42;;;;;;;28.23;12.82;;;5.40;99.90;;;;;;5039507;28;20067;-62
2023/12/09 12:09:08;;;;;;;24.42;13.25;;;5.30;99.90;;;;;;5039475;28;20099;-63
2023/12/09 12:11:34;;;;;;;19.85;11.63;;;5.30;99.90;;;;;;5039348;28;20029;-61
2023/12/09 12:14:00;;;;;;;23.00;12.40;;;5.30;99.90;;;;;;5039252;28;20028;-62
2023/12/09 12:16:25;;;;;;;27.52;13.85;;;5.40;99.90;;;;;;5037288;28;20021;-63
2023/12/09 12:18:54;;;;;;;22.55;11.20;;;5.40;99.90;;;;;;5035199;28;20040;-63
2023/12/09 12:21:19;;;;;;;23.67;11.10;;;5.40;99.90;;;;;;5039481;28;20032;-63
2023/12/09 12:23:49;;;;;;;19.63;11.00;;;5.50;99.90;;;;;;5039153;28;20029;-63
2023/12/09 12:26:15;;;;;;;22.10;11.32;;;5.60;99.90;;;;;;5039232;28;20033;-63
2023/12/09 12:28:40;;;;;;;21.67;10.63;;;5.60;99.90;;;;;;5039008;28;20083;-62
2023/12/09 12:31:06;;;;;;;19.67;10.93;;;5.60;99.90;;;;;;5039018;28;20506;-62